createdAt,value
2018-01-11T00:00:44.135Z,962.9
2018-01-11T00:01:45.789Z,962.9
2018-01-11T00:02:47.457Z,962.9
2018-01-11T00:03:49.102Z,962.9
2018-01-11T00:04:50.754Z,962.9
2018-01-11T00:05:52.403Z,962.9
2018-01-11T00:06:54.048Z,963.0
2018-01-11T00:07:55.694Z,963.0
2018-01-11T00:08:57.343Z,963.0
2018-01-11T00:09:59.000Z,962.9
2018-01-11T00:11:00.641Z,962.9
2018-01-11T00:12:02.290Z,962.9
2018-01-11T00:13:03.941Z,963.0
2018-01-11T00:14:05.594Z,962.9
2018-01-11T00:15:07.239Z,963.0
2018-01-11T00:16:08.888Z,963.0
2018-01-11T00:17:10.544Z,963.0
2018-01-11T00:18:12.197Z,962.9
2018-01-11T00:19:13.849Z,962.9
2018-01-11T00:20:15.504Z,962.9
2018-01-11T00:21:17.147Z,962.9
2018-01-11T00:22:18.798Z,962.9
2018-01-11T00:23:20.457Z,962.9
2018-01-11T00:24:22.117Z,962.9
2018-01-11T00:25:23.762Z,962.9
2018-01-11T00:26:25.422Z,962.9
2018-01-11T00:27:27.080Z,962.9
2018-01-11T00:28:28.735Z,962.9
2018-01-11T00:29:30.383Z,962.9
2018-01-11T00:30:32.038Z,962.9
2018-01-11T00:31:33.694Z,962.9
2018-01-11T00:32:35.343Z,962.9
2018-01-11T00:33:36.988Z,962.9
2018-01-11T00:34:38.648Z,962.9
2018-01-11T00:35:40.293Z,962.9
2018-01-11T00:36:41.946Z,962.9
2018-01-11T00:37:43.556Z,962.9
2018-01-11T00:38:45.213Z,962.9
2018-01-11T00:39:46.855Z,962.9
2018-01-11T00:40:48.499Z,962.9
2018-01-11T00:41:50.154Z,962.9
2018-01-11T00:42:51.807Z,962.9
2018-01-11T00:43:53.470Z,962.9
2018-01-11T00:44:55.126Z,962.9
2018-01-11T00:45:56.760Z,962.9
2018-01-11T00:46:58.417Z,963.0
2018-01-11T00:48:00.070Z,962.9
2018-01-11T00:49:01.707Z,963.0
2018-01-11T00:50:03.353Z,963.0
2018-01-11T00:51:05.009Z,963.0
2018-01-11T00:52:06.656Z,963.0
2018-01-11T00:53:08.304Z,963.0
2018-01-11T00:54:09.953Z,963.0
2018-01-11T00:55:11.600Z,963.0
2018-01-11T00:56:13.248Z,963.0
2018-01-11T00:57:14.900Z,963.0
2018-01-11T00:58:16.553Z,963.0
2018-01-11T00:59:18.221Z,963.1
2018-01-11T01:00:19.880Z,963.0
2018-01-11T01:01:21.531Z,963.0
2018-01-11T01:02:23.183Z,963.0
2018-01-11T01:03:24.830Z,963.0
2018-01-11T01:04:26.483Z,963.0
2018-01-11T01:05:28.125Z,963.1
2018-01-11T01:06:29.777Z,963.0
2018-01-11T01:07:31.433Z,963.1
2018-01-11T01:08:33.079Z,963.1
2018-01-11T01:09:34.735Z,963.1
2018-01-11T01:10:36.388Z,963.1
2018-01-11T01:11:38.042Z,963.1
2018-01-11T01:12:39.680Z,963.1
2018-01-11T01:13:41.327Z,963.1
2018-01-11T01:14:42.980Z,963.1
2018-01-11T01:15:44.627Z,963.1
2018-01-11T01:16:46.272Z,963.1
2018-01-11T01:17:47.923Z,963.1
2018-01-11T01:18:49.574Z,963.1
2018-01-11T01:19:51.239Z,963.1
2018-01-11T01:20:52.892Z,963.1
2018-01-11T01:21:54.564Z,963.2
2018-01-11T01:22:56.211Z,963.1
2018-01-11T01:23:57.938Z,963.1
2018-01-11T01:24:59.610Z,963.1
2018-01-11T01:26:01.258Z,963.2
2018-01-11T01:27:02.908Z,963.1
2018-01-11T01:28:04.547Z,963.1
2018-01-11T01:29:06.200Z,963.2
2018-01-11T01:30:07.845Z,963.2
2018-01-11T01:31:09.489Z,963.2
2018-01-11T01:32:11.144Z,963.2
2018-01-11T01:33:12.788Z,963.2
2018-01-11T01:34:14.440Z,963.2
2018-01-11T01:35:16.090Z,963.2
2018-01-11T01:36:17.738Z,963.2
2018-01-11T01:37:19.426Z,963.2
2018-01-11T01:38:21.082Z,963.2
2018-01-11T01:39:22.733Z,963.2
2018-01-11T01:40:24.374Z,963.3
2018-01-11T01:41:26.038Z,963.2
2018-01-11T01:42:27.687Z,963.3
2018-01-11T01:43:29.333Z,963.3
2018-01-11T01:44:30.976Z,963.3
2018-01-11T01:45:32.633Z,963.3
2018-01-11T01:46:34.284Z,963.2
2018-01-11T01:47:35.934Z,963.3
2018-01-11T01:48:37.585Z,963.3
2018-01-11T01:49:39.233Z,963.3
2018-01-11T01:50:40.893Z,963.3
2018-01-11T01:51:42.548Z,963.3
2018-01-11T01:52:44.203Z,963.3
2018-01-11T01:53:45.914Z,963.3
2018-01-11T01:54:47.511Z,963.3
2018-01-11T01:55:49.162Z,963.3
2018-01-11T01:56:50.813Z,963.3
2018-01-11T01:57:52.463Z,963.3
2018-01-11T01:58:54.112Z,963.3
2018-01-11T01:59:55.762Z,963.3
2018-01-11T02:00:57.413Z,963.3
2018-01-11T02:01:59.063Z,963.3
2018-01-11T02:03:00.713Z,963.3
2018-01-11T02:04:02.363Z,963.3
2018-01-11T02:05:04.005Z,963.3
2018-01-11T02:06:05.663Z,963.3
2018-01-11T02:07:07.308Z,963.3
2018-01-11T02:08:08.959Z,963.3
2018-01-11T02:09:10.615Z,963.3
2018-01-11T02:10:12.265Z,963.3
2018-01-11T02:11:13.929Z,963.3
2018-01-11T02:12:15.574Z,963.3
2018-01-11T02:13:17.221Z,963.3
2018-01-11T02:14:18.872Z,963.3
2018-01-11T02:15:20.526Z,963.3
2018-01-11T02:16:22.165Z,963.3
2018-01-11T02:17:23.823Z,963.3
2018-01-11T02:18:25.478Z,963.3
2018-01-11T02:19:27.136Z,963.3
2018-01-11T02:20:28.783Z,963.3
2018-01-11T02:21:30.445Z,963.3
2018-01-11T02:22:32.088Z,963.2
2018-01-11T02:23:33.738Z,963.3
2018-01-11T02:24:35.380Z,963.2
2018-01-11T02:25:37.058Z,963.3
2018-01-11T02:26:38.700Z,963.3
2018-01-11T02:27:40.354Z,963.3
2018-01-11T02:28:42.007Z,963.3
2018-01-11T02:29:43.670Z,963.3
2018-01-11T02:30:45.314Z,963.3
2018-01-11T02:31:46.967Z,963.3
2018-01-11T02:32:48.616Z,963.3
2018-01-11T02:33:50.263Z,963.3
2018-01-11T02:34:51.922Z,963.3
2018-01-11T02:35:53.574Z,963.3
2018-01-11T02:36:55.218Z,963.3
2018-01-11T02:37:56.867Z,963.3
2018-01-11T02:38:58.514Z,963.3
2018-01-11T02:40:00.156Z,963.4
2018-01-11T02:41:01.808Z,963.3
2018-01-11T02:42:03.469Z,963.4
2018-01-11T02:43:05.121Z,963.3
2018-01-11T02:44:06.773Z,963.4
2018-01-11T02:45:08.457Z,963.4
2018-01-11T02:46:10.107Z,963.4
2018-01-11T02:47:11.748Z,963.4
2018-01-11T02:48:13.406Z,963.4
2018-01-11T02:49:15.059Z,963.4
2018-01-11T02:50:16.713Z,963.4
2018-01-11T02:51:18.360Z,963.4
2018-01-11T02:52:20.016Z,963.4
2018-01-11T02:53:21.662Z,963.4
2018-01-11T02:54:23.358Z,963.4
2018-01-11T02:55:25.001Z,963.4
2018-01-11T03:01:58.236Z,963.5
2018-01-11T03:02:59.883Z,963.5
2018-01-11T03:04:01.527Z,963.5
2018-01-11T03:05:03.174Z,963.5
2018-01-11T03:06:04.821Z,963.5
2018-01-11T03:07:06.474Z,963.4
2018-01-11T03:08:08.124Z,963.5
2018-01-11T03:09:09.782Z,963.5
2018-01-11T03:10:11.428Z,963.5
2018-01-11T03:11:13.074Z,963.6
2018-01-11T03:12:14.721Z,963.5
2018-01-11T03:13:16.370Z,963.6
2018-01-11T03:14:18.057Z,963.6
2018-01-11T03:15:19.704Z,963.6
2018-01-11T03:16:21.349Z,963.6
2018-01-11T03:17:23.002Z,963.6
2018-01-11T03:18:24.655Z,963.6
2018-01-11T03:19:26.292Z,963.6
2018-01-11T03:20:27.941Z,963.6
2018-01-11T03:21:29.590Z,963.6
2018-01-11T03:22:31.247Z,963.6
2018-01-11T03:23:32.898Z,963.6
2018-01-11T03:24:34.545Z,963.6
2018-01-11T03:25:36.198Z,963.6
2018-01-11T03:26:37.849Z,963.6
2018-01-11T03:27:39.504Z,963.6
2018-01-11T03:28:41.149Z,963.6
2018-01-11T03:29:42.799Z,963.6
2018-01-11T03:30:44.464Z,963.5
2018-01-11T03:31:46.090Z,963.6
2018-01-11T03:32:47.734Z,963.5
2018-01-11T03:33:49.385Z,963.6
2018-01-11T03:34:51.027Z,963.5
2018-01-11T03:35:52.682Z,963.5
2018-01-11T03:36:54.328Z,963.5
2018-01-11T03:37:55.980Z,963.5
2018-01-11T03:38:57.625Z,963.5
2018-01-11T03:39:59.282Z,963.5
2018-01-11T03:41:00.938Z,963.5
2018-01-11T03:42:02.581Z,963.5
2018-01-11T03:43:04.237Z,963.5
2018-01-11T03:44:05.888Z,963.5
2018-01-11T03:45:07.538Z,963.6
2018-01-11T03:46:09.189Z,963.5
2018-01-11T03:47:10.833Z,963.6
2018-01-11T03:48:12.479Z,963.6
2018-01-11T03:49:14.125Z,963.6
2018-01-11T03:50:15.769Z,963.6
2018-01-11T03:51:17.422Z,963.6
2018-01-11T03:52:19.073Z,963.6
2018-01-11T03:53:20.724Z,963.6
2018-01-11T03:54:22.376Z,963.6
2018-01-11T03:55:24.026Z,963.6
2018-01-11T03:56:25.678Z,963.7
2018-01-11T03:57:27.337Z,963.7
2018-01-11T03:58:28.987Z,963.6
2018-01-11T03:59:30.635Z,963.7
2018-01-11T04:00:32.289Z,963.7
2018-01-11T04:01:33.944Z,963.7
2018-01-11T04:02:35.589Z,963.7
2018-01-11T04:03:37.249Z,963.7
2018-01-11T04:04:38.893Z,963.7
2018-01-11T04:05:40.551Z,963.7
2018-01-11T04:06:42.200Z,963.7
2018-01-11T04:07:43.851Z,963.7
2018-01-11T04:08:45.504Z,963.8
2018-01-11T04:09:47.150Z,963.7
2018-01-11T04:10:48.802Z,963.8
2018-01-11T04:11:50.450Z,963.8
2018-01-11T04:12:52.102Z,963.8
2018-01-11T04:13:53.749Z,963.8
2018-01-11T04:14:55.399Z,963.8
2018-01-11T04:15:57.042Z,963.8
2018-01-11T04:16:58.713Z,963.8
2018-01-11T04:18:00.379Z,963.8
2018-01-11T04:19:02.007Z,963.8
2018-01-11T04:20:03.661Z,963.8
2018-01-11T04:21:05.309Z,963.8
2018-01-11T04:22:06.959Z,963.8
2018-01-11T04:23:08.602Z,963.8
2018-01-11T04:24:10.253Z,963.9
2018-01-11T04:25:11.906Z,963.8
2018-01-11T04:26:13.557Z,963.8
2018-01-11T04:27:15.205Z,963.8
2018-01-11T04:28:16.862Z,963.8
2018-01-11T04:29:18.510Z,963.9
2018-01-11T04:30:20.166Z,963.8
2018-01-11T04:31:21.809Z,963.9
2018-01-11T04:32:23.460Z,963.9
2018-01-11T04:33:25.121Z,963.9
2018-01-11T04:34:26.766Z,963.9
2018-01-11T04:35:28.416Z,963.9
2018-01-11T04:36:30.058Z,963.9
2018-01-11T04:37:31.710Z,963.9
2018-01-11T04:38:33.368Z,964.0
2018-01-11T04:39:35.027Z,964.0
2018-01-11T04:40:36.674Z,964.0
2018-01-11T04:41:38.322Z,964.0
2018-01-11T04:42:39.974Z,964.0
2018-01-11T04:43:41.622Z,964.0
2018-01-11T04:44:43.268Z,964.1
2018-01-11T04:45:44.924Z,964.1
2018-01-11T04:46:46.569Z,964.1
2018-01-11T04:47:48.222Z,964.1
2018-01-11T04:48:49.882Z,964.1
2018-01-11T04:49:51.533Z,964.1
2018-01-11T04:50:53.188Z,964.1
2018-01-11T04:51:54.827Z,964.1
2018-01-11T04:52:56.487Z,964.1
2018-01-11T04:53:58.130Z,964.2
2018-01-11T04:54:59.785Z,964.2
2018-01-11T04:56:01.443Z,964.2
2018-01-11T04:57:03.096Z,964.2
2018-01-11T04:58:04.747Z,964.2
2018-01-11T04:59:06.399Z,964.2
2018-01-11T05:00:08.057Z,964.3
2018-01-11T05:01:09.711Z,964.2
2018-01-11T05:02:11.378Z,964.2
2018-01-11T05:03:13.038Z,964.2
2018-01-11T05:04:14.681Z,964.2
2018-01-11T05:05:16.326Z,964.2
2018-01-11T05:06:17.977Z,964.2
2018-01-11T05:07:19.626Z,964.3
2018-01-11T05:08:21.278Z,964.3
2018-01-11T05:09:22.924Z,964.3
2018-01-11T05:10:24.572Z,964.3
2018-01-11T05:11:26.221Z,964.3
2018-01-11T05:12:27.858Z,964.3
2018-01-11T05:13:29.516Z,964.3
2018-01-11T05:14:31.169Z,964.3
2018-01-11T05:15:32.826Z,964.4
2018-01-11T05:16:34.476Z,964.4
2018-01-11T05:17:36.143Z,964.3
2018-01-11T05:18:37.799Z,964.3
2018-01-11T05:19:39.437Z,964.3
2018-01-11T05:20:41.087Z,964.3
2018-01-11T05:21:42.734Z,964.3
2018-01-11T05:22:44.382Z,964.3
2018-01-11T05:23:46.034Z,964.4
2018-01-11T05:24:47.682Z,964.4
2018-01-11T05:25:49.328Z,964.4
2018-01-11T05:26:50.980Z,964.4
2018-01-11T05:27:52.649Z,964.4
2018-01-11T05:28:54.314Z,964.4
2018-01-11T05:29:55.957Z,964.4
2018-01-11T05:30:57.613Z,964.5
2018-01-11T05:31:59.262Z,964.5
2018-01-11T05:33:00.914Z,964.4
2018-01-11T05:34:02.567Z,964.5
2018-01-11T05:35:04.247Z,964.5
2018-01-11T05:36:05.878Z,964.5
2018-01-11T05:37:07.542Z,964.5
2018-01-11T05:38:09.190Z,964.5
2018-01-11T05:39:10.838Z,964.5
2018-01-11T05:40:12.492Z,964.5
2018-01-11T05:41:14.138Z,964.5
2018-01-11T05:42:15.785Z,964.5
2018-01-11T05:43:17.490Z,964.6
2018-01-11T05:44:19.144Z,964.6
2018-01-11T05:45:20.803Z,964.6
2018-01-11T05:46:22.449Z,964.6
2018-01-11T05:47:24.103Z,964.6
2018-01-11T05:48:25.749Z,964.6
2018-01-11T05:49:27.396Z,964.6
2018-01-11T05:50:29.049Z,964.6
2018-01-11T05:51:30.704Z,964.6
2018-01-11T05:52:34.066Z,964.6
2018-01-11T05:53:35.718Z,964.6
2018-01-11T05:54:37.372Z,964.6
2018-01-11T05:55:39.064Z,964.6
2018-01-11T05:56:40.714Z,964.6
2018-01-11T05:57:42.369Z,964.7
2018-01-11T05:58:44.020Z,964.7
2018-01-11T05:59:45.674Z,964.7
2018-01-11T06:00:47.328Z,964.7
2018-01-11T06:01:48.997Z,964.7
2018-01-11T06:02:50.654Z,964.7
2018-01-11T06:03:52.300Z,964.7
2018-01-11T06:04:53.946Z,964.7
2018-01-11T06:05:55.610Z,964.7
2018-01-11T06:06:57.254Z,964.8
2018-01-11T06:07:58.920Z,964.7
2018-01-11T06:09:00.570Z,964.8
2018-01-11T06:10:04.673Z,964.8
2018-01-11T06:11:06.331Z,964.8
2018-01-11T06:12:07.983Z,964.8
2018-01-11T06:13:09.742Z,964.8
2018-01-11T06:14:11.405Z,964.8
2018-01-11T06:15:13.073Z,964.8
2018-01-11T06:16:14.724Z,964.8
2018-01-11T06:17:16.370Z,964.9
2018-01-11T06:18:18.027Z,964.9
2018-01-11T06:19:19.680Z,964.9
2018-01-11T06:20:21.323Z,964.9
2018-01-11T06:21:22.986Z,964.9
2018-01-11T06:22:24.676Z,964.9
2018-01-11T06:23:26.354Z,964.9
2018-01-11T06:24:28.009Z,964.9
2018-01-11T06:25:29.660Z,964.9
2018-01-11T06:26:31.446Z,964.9
2018-01-11T06:27:33.178Z,965.0
2018-01-11T06:28:34.826Z,965.0
2018-01-11T06:29:36.484Z,965.0
2018-01-11T06:30:38.146Z,965.0
2018-01-11T06:31:39.795Z,965.0
2018-01-11T06:32:41.451Z,965.1
2018-01-11T06:33:43.100Z,965.0
2018-01-11T06:34:44.830Z,965.0
2018-01-11T06:35:46.471Z,965.0
2018-01-11T06:36:48.126Z,965.1
2018-01-11T06:37:49.774Z,965.0
2018-01-11T06:38:51.473Z,965.1
2018-01-11T06:39:53.126Z,965.1
2018-01-11T06:40:54.775Z,965.1
2018-01-11T06:41:56.427Z,965.1
2018-01-11T06:42:58.083Z,965.2
2018-01-11T06:43:59.742Z,965.1
2018-01-11T06:45:01.396Z,965.2
2018-01-11T06:46:03.049Z,965.2
2018-01-11T06:47:04.695Z,965.2
2018-01-11T06:48:06.358Z,965.2
2018-01-11T06:49:08.024Z,965.2
2018-01-11T06:50:09.738Z,965.2
2018-01-11T06:51:11.392Z,965.2
2018-01-11T06:52:13.050Z,965.2
2018-01-11T06:53:14.689Z,965.2
2018-01-11T06:54:16.338Z,965.2
2018-01-11T06:55:17.993Z,965.3
2018-01-11T07:01:29.969Z,965.3
2018-01-11T07:02:31.620Z,965.3
2018-01-11T07:03:33.259Z,965.3
2018-01-11T07:04:34.903Z,965.3
2018-01-11T07:05:36.551Z,965.3
2018-01-11T07:06:38.206Z,965.3
2018-01-11T07:07:39.855Z,965.4
2018-01-11T07:08:41.503Z,965.4
2018-01-11T07:09:43.154Z,965.4
2018-01-11T07:10:44.809Z,965.4
2018-01-11T07:11:46.463Z,965.4
2018-01-11T07:12:48.129Z,965.5
2018-01-11T07:13:49.793Z,965.5
2018-01-11T07:14:51.444Z,965.5
2018-01-11T07:15:53.107Z,965.6
2018-01-11T07:16:54.758Z,965.6
2018-01-11T07:17:56.406Z,965.5
2018-01-11T07:18:58.068Z,965.6
2018-01-11T07:19:59.776Z,965.6
2018-01-11T07:21:01.497Z,965.6
2018-01-11T07:22:03.148Z,965.5
2018-01-11T07:23:04.817Z,965.6
2018-01-11T07:24:06.469Z,965.5
2018-01-11T07:25:08.153Z,965.6
2018-01-11T07:26:09.803Z,965.6
2018-01-11T07:27:11.464Z,965.6
2018-01-11T07:28:13.123Z,965.6
2018-01-11T07:29:14.786Z,965.7
2018-01-11T07:30:16.445Z,965.7
2018-01-11T07:31:18.105Z,965.7
2018-01-11T07:32:19.761Z,965.7
2018-01-11T07:33:21.416Z,965.7
2018-01-11T07:34:23.071Z,965.7
2018-01-11T07:35:24.731Z,965.8
2018-01-11T07:36:26.422Z,965.7
2018-01-11T07:37:28.082Z,965.8
2018-01-11T07:38:29.810Z,965.8
2018-01-11T07:39:31.469Z,965.8
2018-01-11T07:40:33.128Z,965.8
2018-01-11T07:41:34.770Z,965.8
2018-01-11T07:42:36.424Z,965.8
2018-01-11T07:43:38.076Z,965.8
2018-01-11T07:44:39.753Z,965.8
2018-01-11T07:45:41.381Z,965.8
2018-01-11T07:46:43.025Z,965.8
2018-01-11T07:47:44.680Z,965.8
2018-01-11T07:48:46.433Z,965.8
2018-01-11T07:49:48.092Z,965.8
2018-01-11T07:50:49.748Z,965.9
2018-01-11T07:51:51.406Z,965.9
2018-01-11T07:52:53.060Z,965.8
2018-01-11T07:53:54.708Z,965.9
2018-01-11T07:54:56.356Z,965.8
2018-01-11T07:55:58.029Z,965.9
2018-01-11T07:56:59.678Z,965.9
2018-01-11T07:58:01.337Z,965.9
2018-01-11T07:59:03.014Z,965.9
2018-01-11T08:00:04.663Z,965.9
2018-01-11T08:01:06.317Z,965.9
2018-01-11T08:02:07.971Z,965.9
2018-01-11T08:03:09.622Z,966.0
2018-01-11T08:04:11.275Z,966.0
2018-01-11T08:05:12.939Z,966.0
2018-01-11T08:06:14.689Z,966.0
2018-01-11T08:07:16.361Z,966.0
2018-01-11T08:08:18.023Z,966.0
2018-01-11T08:09:19.685Z,966.0
2018-01-11T08:10:21.340Z,966.1
2018-01-11T08:11:23.005Z,966.1
2018-01-11T08:12:24.668Z,966.1
2018-01-11T08:13:26.345Z,966.2
2018-01-11T08:14:27.981Z,966.2
2018-01-11T08:15:29.638Z,966.2
2018-01-11T08:16:31.295Z,966.2
2018-01-11T08:17:32.956Z,966.3
2018-01-11T08:18:34.621Z,966.3
2018-01-11T08:19:36.286Z,966.3
2018-01-11T08:20:37.948Z,966.3
2018-01-11T08:21:39.611Z,966.3
2018-01-11T08:22:41.278Z,966.3
2018-01-11T08:23:42.925Z,966.3
2018-01-11T08:24:44.591Z,966.3
2018-01-11T08:25:46.243Z,966.3
2018-01-11T08:26:47.907Z,966.3
2018-01-11T08:27:49.567Z,966.3
2018-01-11T08:28:51.220Z,966.3
2018-01-11T08:29:52.895Z,966.3
2018-01-11T08:30:54.546Z,966.3
2018-01-11T08:31:56.204Z,966.3
2018-01-11T08:32:57.865Z,966.3
2018-01-11T08:33:59.523Z,966.4
2018-01-11T08:35:01.197Z,966.4
2018-01-11T08:36:02.844Z,966.4
2018-01-11T08:37:04.505Z,966.4
2018-01-11T08:38:06.172Z,966.4
2018-01-11T08:39:07.856Z,966.5
2018-01-11T08:40:09.517Z,966.5
2018-01-11T08:41:11.177Z,966.5
2018-01-11T08:42:12.820Z,966.6
2018-01-11T08:43:14.478Z,966.6
2018-01-11T08:44:16.135Z,966.6
2018-01-11T08:45:17.789Z,966.6
2018-01-11T08:46:19.436Z,966.6
2018-01-11T08:47:21.099Z,966.6
2018-01-11T08:48:22.758Z,966.6
2018-01-11T08:49:24.424Z,966.6
2018-01-11T08:50:26.085Z,966.6
2018-01-11T08:51:27.745Z,966.7
2018-01-11T08:52:29.407Z,966.6
2018-01-11T08:53:31.065Z,966.6
2018-01-11T08:54:32.711Z,966.7
2018-01-11T08:55:34.357Z,966.7
2018-01-11T08:56:36.026Z,966.7
2018-01-11T08:57:37.682Z,966.7
2018-01-11T08:58:39.331Z,966.7
2018-01-11T08:59:40.985Z,966.8
2018-01-11T09:00:42.649Z,966.8
2018-01-11T09:01:44.301Z,966.8
2018-01-11T09:02:45.992Z,966.8
2018-01-11T09:03:47.648Z,966.9
2018-01-11T09:04:49.300Z,966.9
2018-01-11T09:05:50.960Z,966.9
2018-01-11T09:06:52.614Z,966.9
2018-01-11T09:07:54.282Z,966.9
2018-01-11T09:08:55.946Z,966.9
2018-01-11T09:09:57.600Z,966.9
2018-01-11T09:10:59.258Z,966.9
2018-01-11T09:12:00.932Z,966.9
2018-01-11T09:13:02.584Z,967.0
2018-01-11T09:14:04.236Z,967.0
2018-01-11T09:15:05.920Z,967.0
2018-01-11T09:16:07.580Z,967.0
2018-01-11T09:17:09.238Z,967.0
2018-01-11T09:18:10.899Z,967.0
2018-01-11T09:19:12.562Z,967.1
2018-01-11T09:20:14.224Z,967.0
2018-01-11T09:21:15.878Z,967.0
2018-01-11T09:22:17.540Z,967.0
2018-01-11T09:23:19.191Z,967.0
2018-01-11T09:24:20.845Z,967.0
2018-01-11T09:25:22.502Z,967.1
2018-01-11T09:26:24.156Z,967.0
2018-01-11T09:27:25.815Z,967.1
2018-01-11T09:28:27.471Z,967.1
2018-01-11T09:29:29.129Z,967.1
2018-01-11T09:30:30.786Z,967.1
2018-01-11T09:31:32.441Z,967.1
2018-01-11T09:32:34.098Z,967.1
2018-01-11T09:33:35.760Z,967.1
2018-01-11T09:34:37.409Z,967.1
2018-01-11T09:35:39.076Z,967.1
2018-01-11T09:36:40.738Z,967.1
2018-01-11T09:37:42.398Z,967.1
2018-01-11T09:38:44.061Z,967.1
2018-01-11T09:39:45.725Z,967.1
2018-01-11T09:40:47.379Z,967.2
2018-01-11T09:41:49.044Z,967.2
2018-01-11T09:42:50.698Z,967.2
2018-01-11T09:43:52.355Z,967.2
2018-01-11T09:44:54.013Z,967.2
2018-01-11T09:45:55.671Z,967.2
2018-01-11T09:46:57.325Z,967.2
2018-01-11T09:47:58.989Z,967.2
2018-01-11T09:49:00.641Z,967.2
2018-01-11T09:50:02.307Z,967.2
2018-01-11T09:51:03.965Z,967.2
2018-01-11T09:52:05.642Z,967.2
2018-01-11T09:53:07.295Z,967.3
2018-01-11T09:54:08.967Z,967.2
2018-01-11T09:55:10.607Z,967.2
2018-01-11T09:56:12.266Z,967.2
2018-01-11T09:57:13.920Z,967.3
2018-01-11T09:58:15.585Z,967.3
2018-01-11T09:59:17.246Z,967.3
2018-01-11T10:00:18.908Z,967.3
2018-01-11T10:01:20.574Z,967.3
2018-01-11T10:02:22.236Z,967.3
2018-01-11T10:03:23.895Z,967.3
2018-01-11T10:04:25.555Z,967.3
2018-01-11T10:05:27.221Z,967.3
2018-01-11T10:06:28.880Z,967.3
2018-01-11T10:07:30.540Z,967.3
2018-01-11T10:08:32.198Z,967.3
2018-01-11T10:09:33.878Z,967.3
2018-01-11T10:10:35.570Z,967.3
2018-01-11T10:11:37.234Z,967.3
2018-01-11T10:12:38.887Z,967.3
2018-01-11T10:13:40.565Z,967.3
2018-01-11T10:14:42.231Z,967.3
2018-01-11T10:15:43.890Z,967.4
2018-01-11T10:16:45.544Z,967.3
2018-01-11T10:17:47.196Z,967.4
2018-01-11T10:18:48.868Z,967.4
2018-01-11T10:19:50.525Z,967.4
2018-01-11T10:20:52.188Z,967.4
2018-01-11T10:21:53.855Z,967.4
2018-01-11T10:22:55.515Z,967.4
2018-01-11T10:23:57.171Z,967.4
2018-01-11T10:24:58.823Z,967.5
2018-01-11T10:26:00.482Z,967.4
2018-01-11T10:27:02.145Z,967.4
2018-01-11T10:28:03.827Z,967.5
2018-01-11T10:29:05.497Z,967.4
2018-01-11T10:30:07.156Z,967.5
2018-01-11T10:31:08.823Z,967.5
2018-01-11T10:32:10.490Z,967.5
2018-01-11T10:33:12.148Z,967.5
2018-01-11T10:34:13.805Z,967.5
2018-01-11T10:35:15.473Z,967.6
2018-01-11T10:36:17.134Z,967.6
2018-01-11T10:37:18.802Z,967.5
2018-01-11T10:38:20.471Z,967.5
2018-01-11T10:39:22.129Z,967.5
2018-01-11T10:40:23.790Z,967.5
2018-01-11T10:41:25.470Z,967.6
2018-01-11T10:42:27.129Z,967.6
2018-01-11T10:43:28.822Z,967.5
2018-01-11T10:44:30.549Z,967.6
2018-01-11T10:45:32.206Z,967.6
2018-01-11T10:46:33.896Z,967.6
2018-01-11T10:47:35.557Z,967.5
2018-01-11T10:48:37.221Z,967.6
2018-01-11T10:49:38.911Z,967.6
2018-01-11T10:50:40.573Z,967.6
2018-01-11T10:51:42.232Z,967.6
2018-01-11T10:52:43.888Z,967.6
2018-01-11T10:53:45.553Z,967.5
2018-01-11T10:54:47.214Z,967.6
2018-01-11T11:01:04.682Z,967.6
2018-01-11T11:02:06.334Z,967.5
2018-01-11T11:03:07.993Z,967.6
2018-01-11T11:04:09.654Z,967.5
2018-01-11T11:05:11.353Z,967.5
2018-01-11T11:06:13.026Z,967.5
2018-01-11T11:07:14.685Z,967.5
2018-01-11T11:08:16.370Z,967.5
2018-01-11T11:09:18.019Z,967.5
2018-01-11T11:10:19.687Z,967.5
2018-01-11T11:11:21.349Z,967.5
2018-01-11T11:12:23.033Z,967.5
2018-01-11T11:13:24.692Z,967.5
2018-01-11T11:14:26.362Z,967.6
2018-01-11T11:15:28.027Z,967.5
2018-01-11T11:16:29.694Z,967.5
2018-01-11T11:17:31.364Z,967.5
2018-01-11T11:18:33.038Z,967.5
2018-01-11T11:19:34.696Z,967.6
2018-01-11T11:20:36.357Z,967.5
2018-01-11T11:21:38.013Z,967.6
2018-01-11T11:22:39.685Z,967.5
2018-01-11T11:23:41.352Z,967.5
2018-01-11T11:24:43.023Z,967.5
2018-01-11T11:25:44.683Z,967.5
2018-01-11T11:26:46.342Z,967.5
2018-01-11T11:27:48.006Z,967.5
2018-01-11T11:28:49.672Z,967.5
2018-01-11T11:29:51.334Z,967.6
2018-01-11T11:30:52.993Z,967.6
2018-01-11T11:31:54.662Z,967.6
2018-01-11T11:32:56.327Z,967.5
2018-01-11T11:33:58.000Z,967.6
2018-01-11T11:34:59.653Z,967.6
2018-01-11T11:36:01.314Z,967.6
2018-01-11T11:37:02.973Z,967.6
2018-01-11T11:38:04.628Z,967.6
2018-01-11T11:39:06.298Z,967.6
2018-01-11T11:40:07.960Z,967.6
2018-01-11T11:41:09.631Z,967.6
2018-01-11T11:42:11.296Z,967.6
2018-01-11T11:43:12.959Z,967.6
2018-01-11T11:44:14.650Z,967.6
2018-01-11T11:45:16.307Z,967.6
2018-01-11T11:46:17.974Z,967.6
2018-01-11T11:47:19.636Z,967.6
2018-01-11T11:48:21.291Z,967.6
2018-01-11T11:49:23.010Z,967.6
2018-01-11T11:50:24.851Z,967.6
2018-01-11T11:51:26.592Z,967.6
2018-01-11T11:52:28.242Z,967.6
2018-01-11T11:53:29.900Z,967.6
2018-01-11T11:54:31.564Z,967.6
2018-01-11T11:55:33.228Z,967.6
2018-01-11T11:56:34.890Z,967.6
2018-01-11T11:57:36.605Z,967.6
2018-01-11T11:58:38.396Z,967.6
2018-01-11T11:59:40.058Z,967.6
2018-01-11T12:00:41.751Z,967.6
2018-01-11T12:01:44.058Z,967.6
2018-01-11T12:02:45.711Z,967.6
2018-01-11T12:03:47.405Z,967.6
2018-01-11T12:04:49.075Z,967.6
2018-01-11T12:05:50.780Z,967.6
2018-01-11T12:06:52.446Z,967.7
2018-01-11T12:07:54.112Z,967.6
2018-01-11T12:08:55.779Z,967.6
2018-01-11T12:09:57.435Z,967.6
2018-01-11T12:10:59.102Z,967.6
2018-01-11T12:12:00.764Z,967.6
2018-01-11T12:13:02.431Z,967.6
2018-01-11T12:14:04.098Z,967.6
2018-01-11T12:15:05.763Z,967.6
2018-01-11T12:16:07.433Z,967.6
2018-01-11T12:17:09.095Z,967.6
2018-01-11T12:18:10.752Z,967.6
2018-01-11T12:19:12.423Z,967.7
2018-01-11T12:20:14.176Z,967.6
2018-01-11T12:21:15.833Z,967.6
2018-01-11T12:22:17.500Z,967.6
2018-01-11T12:23:19.209Z,967.6
2018-01-11T12:24:20.859Z,967.6
2018-01-11T12:25:22.520Z,967.6
2018-01-11T12:26:24.508Z,967.6
2018-01-11T12:27:26.163Z,967.6
2018-01-11T12:28:28.096Z,967.6
2018-01-11T12:29:29.752Z,967.5
2018-01-11T12:30:31.730Z,967.6
2018-01-11T12:31:33.422Z,967.6
2018-01-11T12:32:35.078Z,967.6
2018-01-11T12:33:36.750Z,967.6
2018-01-11T12:34:38.437Z,967.6
2018-01-11T12:35:40.110Z,967.6
2018-01-11T12:36:41.774Z,967.6
2018-01-11T12:37:43.460Z,967.6
2018-01-11T12:38:45.123Z,967.6
2018-01-11T12:39:46.782Z,967.6
2018-01-11T12:40:48.439Z,967.7
2018-01-11T12:41:50.103Z,967.7
2018-01-11T12:42:51.773Z,967.7
2018-01-11T12:43:53.432Z,967.7
2018-01-11T12:44:55.096Z,967.7
2018-01-11T12:45:56.750Z,967.7
2018-01-11T12:46:58.447Z,967.7
2018-01-11T12:48:00.102Z,967.7
2018-01-11T12:49:02.499Z,967.7
2018-01-11T12:50:04.152Z,967.7
2018-01-11T12:51:05.815Z,967.7
2018-01-11T12:52:07.475Z,967.7
2018-01-11T12:53:09.133Z,967.7
2018-01-11T12:54:10.787Z,967.7
2018-01-11T12:55:12.461Z,967.8
2018-01-11T12:56:14.271Z,967.8
2018-01-11T12:57:15.942Z,967.8
2018-01-11T12:58:17.578Z,967.8
2018-01-11T12:59:19.248Z,967.8
2018-01-11T13:00:20.958Z,967.8
2018-01-11T13:01:22.627Z,967.8
2018-01-11T13:02:24.288Z,967.8
2018-01-11T13:03:25.938Z,967.8
2018-01-11T13:04:27.975Z,967.8
2018-01-11T13:05:29.629Z,967.8
2018-01-11T13:06:31.289Z,967.9
2018-01-11T13:07:32.995Z,967.8
2018-01-11T13:08:34.647Z,967.9
2018-01-11T13:09:36.298Z,967.8
2018-01-11T13:10:37.982Z,967.9
2018-01-11T13:11:39.646Z,967.8
2018-01-11T13:12:41.295Z,967.8
2018-01-11T13:13:42.993Z,967.8
2018-01-11T13:14:44.664Z,967.9
2018-01-11T13:15:46.332Z,967.9
2018-01-11T13:16:47.988Z,967.9
2018-01-11T13:17:49.675Z,967.9
2018-01-11T13:18:51.352Z,967.9
2018-01-11T13:19:53.030Z,967.9
2018-01-11T13:20:54.686Z,968.0
2018-01-11T13:21:56.328Z,968.0
2018-01-11T13:22:58.081Z,968.1
2018-01-11T13:23:59.746Z,968.1
2018-01-11T13:25:01.410Z,968.1
2018-01-11T13:26:03.059Z,968.1
2018-01-11T13:27:04.725Z,968.1
2018-01-11T13:28:06.381Z,968.1
2018-01-11T13:29:08.058Z,968.1
2018-01-11T13:30:09.766Z,968.1